sensor_id;sensor_type;location;lat;lon;timestamp;P1;durP1;ratioP1;P2;durP2;ratioP2
68284;SDS011;55114;52.052;5.238;2023-04-24T00:00:22;2.90;;;1.10;;
68284;SDS011;55114;52.052;5.238;2023-04-24T00:02:49;3.00;;;1.30;;
68284;SDS011;55114;52.052;5.238;2023-04-24T00:05:17;4.37;;;1.50;;
68284;SDS011;55114;52.052;5.238;2023-04-24T00:07:44;3.92;;;1.63;;
68284;SDS011;55114;52.052;5.238;2023-04-24T00:10:12;4.45;;;1.88;;
68284;SDS011;55114;52.052;5.238;2023-04-24T00:12:39;5.25;;;1.92;;
68284;SDS011;55114;52.052;5.238;2023-04-24T00:15:07;4.20;;;2.00;;
68284;SDS011;55114;52.052;5.238;2023-04-24T00:17:34;4.72;;;2.10;;
68284;SDS011;55114;52.052;5.238;2023-04-24T00:20:04;6.40;;;2.30;;
68284;SDS011;55114;52.052;5.238;2023-04-24T00:22:33;4.50;;;2.25;;
68284;SDS011;55114;52.052;5.238;2023-04-24T00:25:00;5.25;;;2.33;;
68284;SDS011;55114;52.052;5.238;2023-04-24T00:27:27;4.60;;;2.38;;
68284;SDS011;55114;52.052;5.238;2023-04-24T00:29:57;5.50;;;2.40;;
68284;SDS011;55114;52.052;5.238;2023-04-24T00:32:24;3.63;;;1.85;;
68284;SDS011;55114;52.052;5.238;2023-04-24T00:34:51;4.80;;;2.25;;
68284;SDS011;55114;52.052;5.238;2023-04-24T00:37:19;4.53;;;2.08;;
68284;SDS011;55114;52.052;5.238;2023-04-24T00:39:46;5.43;;;1.90;;
68284;SDS011;55114;52.052;5.238;2023-04-24T00:42:14;4.47;;;2.00;;
68284;SDS011;55114;52.052;5.238;2023-04-24T00:44:41;4.68;;;2.10;;
68284;SDS011;55114;52.052;5.238;2023-04-24T00:47:09;4.75;;;2.00;;
68284;SDS011;55114;52.052;5.238;2023-04-24T00:49:36;5.68;;;2.40;;
68284;SDS011;55114;52.052;5.238;2023-04-24T00:52:04;4.38;;;2.30;;
68284;SDS011;55114;52.052;5.238;2023-04-24T00:54:35;7.32;;;2.45;;
68284;SDS011;55114;52.052;5.238;2023-04-24T00:57:03;6.20;;;2.72;;
68284;SDS011;55114;52.052;5.238;2023-04-24T00:59:30;9.02;;;3.20;;
68284;SDS011;55114;52.052;5.238;2023-04-24T01:01:58;7.72;;;3.08;;
68284;SDS011;55114;52.052;5.238;2023-04-24T01:04:25;9.35;;;3.13;;
68284;SDS011;55114;52.052;5.238;2023-04-24T01:06:53;6.43;;;3.08;;
68284;SDS011;55114;52.052;5.238;2023-04-24T01:09:22;6.82;;;3.35;;
68284;SDS011;55114;52.052;5.238;2023-04-24T01:11:50;7.28;;;3.10;;
68284;SDS011;55114;52.052;5.238;2023-04-24T01:14:17;8.70;;;3.25;;
68284;SDS011;55114;52.052;5.238;2023-04-24T01:16:44;6.22;;;2.92;;
68284;SDS011;55114;52.052;5.238;2023-04-24T01:19:11;7.50;;;3.03;;
68284;SDS011;55114;52.052;5.238;2023-04-24T01:21:39;7.13;;;2.95;;
68284;SDS011;55114;52.052;5.238;2023-04-24T01:24:08;8.13;;;3.20;;
68284;SDS011;55114;52.052;5.238;2023-04-24T01:26:35;6.90;;;3.03;;
68284;SDS011;55114;52.052;5.238;2023-04-24T01:29:04;6.30;;;2.85;;
68284;SDS011;55114;52.052;5.238;2023-04-24T01:31:31;6.15;;;3.08;;
68284;SDS011;55114;52.052;5.238;2023-04-24T01:33:59;8.02;;;3.13;;
68284;SDS011;55114;52.052;5.238;2023-04-24T01:36:27;7.30;;;3.13;;
68284;SDS011;55114;52.052;5.238;2023-04-24T01:38:55;6.38;;;2.90;;
68284;SDS011;55114;52.052;5.238;2023-04-24T01:41:22;6.63;;;3.10;;
68284;SDS011;55114;52.052;5.238;2023-04-24T01:43:50;6.93;;;3.37;;
68284;SDS011;55114;52.052;5.238;2023-04-24T01:46:17;8.82;;;3.40;;
68284;SDS011;55114;52.052;5.238;2023-04-24T01:48:45;6.50;;;3.28;;
68284;SDS011;55114;52.052;5.238;2023-04-24T01:51:12;6.53;;;2.90;;
68284;SDS011;55114;52.052;5.238;2023-04-24T01:53:39;7.65;;;3.03;;
68284;SDS011;55114;52.052;5.238;2023-04-24T01:56:07;7.68;;;3.13;;
68284;SDS011;55114;52.052;5.238;2023-04-24T01:58:34;6.35;;;3.00;;
68284;SDS011;55114;52.052;5.238;2023-04-24T02:01:02;8.15;;;3.03;;
68284;SDS011;55114;52.052;5.238;2023-04-24T02:03:29;7.13;;;3.25;;
68284;SDS011;55114;52.052;5.238;2023-04-24T02:05:57;7.07;;;3.10;;
68284;SDS011;55114;52.052;5.238;2023-04-24T02:08:24;7.25;;;3.30;;
68284;SDS011;55114;52.052;5.238;2023-04-24T02:10:51;7.82;;;3.53;;
68284;SDS011;55114;52.052;5.238;2023-04-24T02:13:19;8.57;;;3.88;;
68284;SDS011;55114;52.052;5.238;2023-04-24T02:15:46;6.70;;;3.40;;
68284;SDS011;55114;52.052;5.238;2023-04-24T02:18:13;9.45;;;3.80;;
68284;SDS011;55114;52.052;5.238;2023-04-24T02:20:41;6.43;;;3.25;;
68284;SDS011;55114;52.052;5.238;2023-04-24T02:23:09;7.20;;;3.13;;
68284;SDS011;55114;52.052;5.238;2023-04-24T02:25:36;6.72;;;2.58;;
68284;SDS011;55114;52.052;5.238;2023-04-24T02:28:03;6.57;;;2.60;;
68284;SDS011;55114;52.052;5.238;2023-04-24T02:30:31;5.95;;;2.78;;
68284;SDS011;55114;52.052;5.238;2023-04-24T02:32:58;6.03;;;2.50;;
68284;SDS011;55114;52.052;5.238;2023-04-24T02:35:26;6.78;;;2.60;;
68284;SDS011;55114;52.052;5.238;2023-04-24T02:37:53;6.72;;;2.75;;
68284;SDS011;55114;52.052;5.238;2023-04-24T02:40:20;6.55;;;2.40;;
68284;SDS011;55114;52.052;5.238;2023-04-24T02:42:48;5.47;;;2.20;;
68284;SDS011;55114;52.052;5.238;2023-04-24T02:45:15;5.72;;;2.33;;
68284;SDS011;55114;52.052;5.238;2023-04-24T02:47:42;6.10;;;2.33;;
68284;SDS011;55114;52.052;5.238;2023-04-24T02:50:10;5.68;;;2.50;;
68284;SDS011;55114;52.052;5.238;2023-04-24T02:52:38;7.95;;;3.15;;
68284;SDS011;55114;52.052;5.238;2023-04-24T02:55:06;8.68;;;3.67;;
68284;SDS011;55114;52.052;5.238;2023-04-24T02:57:34;9.50;;;3.67;;
68284;SDS011;55114;52.052;5.238;2023-04-24T03:00:01;8.02;;;3.78;;
68284;SDS011;55114;52.052;5.238;2023-04-24T03:02:31;8.05;;;3.80;;
68284;SDS011;55114;52.052;5.238;2023-04-24T03:04:58;7.97;;;3.80;;
68284;SDS011;55114;52.052;5.238;2023-04-24T03:07:26;9.68;;;4.20;;
68284;SDS011;55114;52.052;5.238;2023-04-24T03:09:53;7.53;;;3.80;;
68284;SDS011;55114;52.052;5.238;2023-04-24T03:12:20;8.75;;;4.30;;
68284;SDS011;55114;52.052;5.238;2023-04-24T03:14:50;9.73;;;4.00;;
68284;SDS011;55114;52.052;5.238;2023-04-24T03:17:17;8.35;;;4.18;;
68284;SDS011;55114;52.052;5.238;2023-04-24T03:19:44;9.35;;;3.70;;
68284;SDS011;55114;52.052;5.238;2023-04-24T03:22:11;8.00;;;3.67;;
68284;SDS011;55114;52.052;5.238;2023-04-24T03:24:39;6.53;;;3.15;;
68284;SDS011;55114;52.052;5.238;2023-04-24T03:27:06;7.05;;;2.65;;
68284;SDS011;55114;52.052;5.238;2023-04-24T03:29:34;5.32;;;2.38;;
68284;SDS011;55114;52.052;5.238;2023-04-24T03:32:01;5.18;;;2.40;;
68284;SDS011;55114;52.052;5.238;2023-04-24T03:34:28;5.65;;;2.13;;
68284;SDS011;55114;52.052;5.238;2023-04-24T03:36:55;5.53;;;2.20;;
68284;SDS011;55114;52.052;5.238;2023-04-24T03:39:23;5.63;;;1.98;;
68284;SDS011;55114;52.052;5.238;2023-04-24T03:41:51;6.20;;;2.30;;
68284;SDS011;55114;52.052;5.238;2023-04-24T03:44:18;7.03;;;3.10;;
68284;SDS011;55114;52.052;5.238;2023-04-24T03:46:46;7.97;;;2.90;;
68284;SDS011;55114;52.052;5.238;2023-04-24T03:49:13;8.02;;;3.00;;
68284;SDS011;55114;52.052;5.238;2023-04-24T03:51:40;11.20;;;3.30;;
68284;SDS011;55114;52.052;5.238;2023-04-24T03:54:07;8.07;;;3.50;;
68284;SDS011;55114;52.052;5.238;2023-04-24T03:56:35;7.85;;;3.63;;
68284;SDS011;55114;52.052;5.238;2023-04-24T03:59:02;8.40;;;3.60;;
68284;SDS011;55114;52.052;5.238;2023-04-24T04:01:29;7.65;;;3.20;;
68284;SDS011;55114;52.052;5.238;2023-04-24T04:03:57;5.05;;;2.05;;
68284;SDS011;55114;52.052;5.238;2023-04-24T04:06:24;5.30;;;1.90;;
68284;SDS011;55114;52.052;5.238;2023-04-24T04:08:53;4.03;;;1.70;;
68284;SDS011;55114;52.052;5.238;2023-04-24T04:11:20;4.88;;;1.40;;
68284;SDS011;55114;52.052;5.238;2023-04-24T04:13:47;4.47;;;1.52;;
68284;SDS011;55114;52.052;5.238;2023-04-24T04:16:15;4.60;;;1.60;;
68284;SDS011;55114;52.052;5.238;2023-04-24T04:18:43;4.05;;;1.50;;
68284;SDS011;55114;52.052;5.238;2023-04-24T04:21:11;4.60;;;1.77;;
68284;SDS011;55114;52.052;5.238;2023-04-24T04:23:40;4.72;;;1.88;;
68284;SDS011;55114;52.052;5.238;2023-04-24T04:26:07;4.47;;;1.70;;
68284;SDS011;55114;52.052;5.238;2023-04-24T04:28:35;6.07;;;2.30;;
68284;SDS011;55114;52.052;5.238;2023-04-24T04:31:04;5.88;;;2.33;;
68284;SDS011;55114;52.052;5.238;2023-04-24T04:33:31;7.50;;;2.70;;
68284;SDS011;55114;52.052;5.238;2023-04-24T04:35:58;6.55;;;2.75;;
68284;SDS011;55114;52.052;5.238;2023-04-24T04:38:28;6.65;;;2.85;;
68284;SDS011;55114;52.052;5.238;2023-04-24T04:40:56;6.35;;;2.40;;
68284;SDS011;55114;52.052;5.238;2023-04-24T04:43:23;5.80;;;1.88;;
68284;SDS011;55114;52.052;5.238;2023-04-24T04:45:51;6.03;;;1.65;;
68284;SDS011;55114;52.052;5.238;2023-04-24T04:48:20;5.20;;;1.42;;
68284;SDS011;55114;52.052;5.238;2023-04-24T04:50:48;3.28;;;1.40;;
68284;SDS011;55114;52.052;5.238;2023-04-24T04:53:15;5.78;;;1.85;;
68284;SDS011;55114;52.052;5.238;2023-04-24T04:55:42;5.82;;;1.95;;
68284;SDS011;55114;52.052;5.238;2023-04-24T04:58:10;7.20;;;2.78;;
68284;SDS011;55114;52.052;5.238;2023-04-24T05:00:37;6.22;;;2.45;;
68284;SDS011;55114;52.052;5.238;2023-04-24T05:03:05;7.43;;;2.70;;
68284;SDS011;55114;52.052;5.238;2023-04-24T05:05:46;6.00;;;2.17;;
68284;SDS011;55114;52.052;5.238;2023-04-24T05:08:13;5.40;;;2.40;;
68284;SDS011;55114;52.052;5.238;2023-04-24T05:10:43;5.95;;;2.38;;
68284;SDS011;55114;52.052;5.238;2023-04-24T05:13:10;10.18;;;4.15;;
68284;SDS011;55114;52.052;5.238;2023-04-24T05:15:39;6.85;;;2.53;;
68284;SDS011;55114;52.052;5.238;2023-04-24T05:18:06;7.32;;;2.70;;
68284;SDS011;55114;52.052;5.238;2023-04-24T05:20:33;7.28;;;3.03;;
68284;SDS011;55114;52.052;5.238;2023-04-24T05:23:01;11.70;;;2.88;;
68284;SDS011;55114;52.052;5.238;2023-04-24T05:25:29;7.72;;;2.90;;
68284;SDS011;55114;52.052;5.238;2023-04-24T05:28:01;17.13;;;4.28;;
68284;SDS011;55114;52.052;5.238;2023-04-24T05:30:30;8.88;;;2.50;;
68284;SDS011;55114;52.052;5.238;2023-04-24T05:32:57;4.28;;;1.60;;
68284;SDS011;55114;52.052;5.238;2023-04-24T05:35:27;5.35;;;1.30;;
68284;SDS011;55114;52.052;5.238;2023-04-24T05:37:54;3.35;;;1.00;;
68284;SDS011;55114;52.052;5.238;2023-04-24T05:40:21;5.07;;;1.05;;
68284;SDS011;55114;52.052;5.238;2023-04-24T05:42:49;5.65;;;0.73;;
68284;SDS011;55114;52.052;5.238;2023-04-24T05:45:16;2.70;;;0.60;;
68284;SDS011;55114;52.052;5.238;2023-04-24T05:47:43;6.07;;;1.70;;
68284;SDS011;55114;52.052;5.238;2023-04-24T05:50:11;5.95;;;1.40;;
68284;SDS011;55114;52.052;5.238;2023-04-24T05:52:38;4.22;;;0.82;;
68284;SDS011;55114;52.052;5.238;2023-04-24T05:55:06;2.78;;;0.98;;
68284;SDS011;55114;52.052;5.238;2023-04-24T05:57:33;2.20;;;0.60;;
68284;SDS011;55114;52.052;5.238;2023-04-24T06:00:01;3.72;;;0.60;;
68284;SDS011;55114;52.052;5.238;2023-04-24T06:02:28;3.17;;;0.70;;
68284;SDS011;55114;52.052;5.238;2023-04-24T06:04:59;2.78;;;0.80;;
68284;SDS011;55114;52.052;5.238;2023-04-24T06:07:26;2.67;;;0.77;;
68284;SDS011;55114;52.052;5.238;2023-04-24T06:09:53;4.72;;;0.95;;
68284;SDS011;55114;52.052;5.238;2023-04-24T06:12:21;3.38;;;1.00;;
68284;SDS011;55114;52.052;5.238;2023-04-24T06:14:48;5.75;;;1.20;;
68284;SDS011;55114;52.052;5.238;2023-04-24T06:17:16;4.97;;;1.30;;
68284;SDS011;55114;52.052;5.238;2023-04-24T06:19:43;4.75;;;1.60;;
68284;SDS011;55114;52.052;5.238;2023-04-24T06:22:11;3.40;;;1.48;;
68284;SDS011;55114;52.052;5.238;2023-04-24T06:24:39;3.30;;;1.33;;
68284;SDS011;55114;52.052;5.238;2023-04-24T06:27:07;4.95;;;1.48;;
68284;SDS011;55114;52.052;5.238;2023-04-24T06:29:35;5.43;;;2.08;;
68284;SDS011;55114;52.052;5.238;2023-04-24T06:32:02;6.13;;;2.60;;
68284;SDS011;55114;52.052;5.238;2023-04-24T06:34:29;8.77;;;3.53;;
68284;SDS011;55114;52.052;5.238;2023-04-24T06:36:58;9.52;;;4.05;;
68284;SDS011;55114;52.052;5.238;2023-04-24T06:39:26;12.13;;;4.35;;
68284;SDS011;55114;52.052;5.238;2023-04-24T06:41:53;11.43;;;4.90;;
68284;SDS011;55114;52.052;5.238;2023-04-24T06:44:20;12.82;;;5.57;;
68284;SDS011;55114;52.052;5.238;2023-04-24T06:46:47;12.07;;;5.93;;
68284;SDS011;55114;52.052;5.238;2023-04-24T06:49:14;18.50;;;6.82;;
68284;SDS011;55114;52.052;5.238;2023-04-24T06:51:42;16.90;;;6.70;;
68284;SDS011;55114;52.052;5.238;2023-04-24T06:54:09;15.73;;;7.07;;
68284;SDS011;55114;52.052;5.238;2023-04-24T06:56:36;17.08;;;7.65;;
68284;SDS011;55114;52.052;5.238;2023-04-24T06:59:04;20.35;;;8.10;;
68284;SDS011;55114;52.052;5.238;2023-04-24T07:01:31;17.05;;;7.13;;
68284;SDS011;55114;52.052;5.238;2023-04-24T07:03:59;16.85;;;7.97;;
68284;SDS011;55114;52.052;5.238;2023-04-24T07:06:26;16.13;;;7.45;;
68284;SDS011;55114;52.052;5.238;2023-04-24T07:08:54;16.15;;;6.70;;
68284;SDS011;55114;52.052;5.238;2023-04-24T07:11:23;18.02;;;6.97;;
68284;SDS011;55114;52.052;5.238;2023-04-24T07:13:50;18.05;;;7.68;;
68284;SDS011;55114;52.052;5.238;2023-04-24T07:16:18;20.57;;;7.43;;
68284;SDS011;55114;52.052;5.238;2023-04-24T07:18:45;16.55;;;7.03;;
68284;SDS011;55114;52.052;5.238;2023-04-24T07:21:12;25.30;;;8.05;;
68284;SDS011;55114;52.052;5.238;2023-04-24T07:23:39;18.70;;;8.20;;
68284;SDS011;55114;52.052;5.238;2023-04-24T07:26:07;17.55;;;6.25;;
68284;SDS011;55114;52.052;5.238;2023-04-24T07:28:34;15.48;;;5.78;;
68284;SDS011;55114;52.052;5.238;2023-04-24T07:31:02;16.02;;;6.47;;
68284;SDS011;55114;52.052;5.238;2023-04-24T07:33:29;17.35;;;6.60;;
68284;SDS011;55114;52.052;5.238;2023-04-24T07:35:57;18.83;;;7.07;;
68284;SDS011;55114;52.052;5.238;2023-04-24T07:38:24;17.25;;;5.68;;
68284;SDS011;55114;52.052;5.238;2023-04-24T07:40:52;17.17;;;5.32;;
68284;SDS011;55114;52.052;5.238;2023-04-24T07:43:19;16.50;;;5.63;;
68284;SDS011;55114;52.052;5.238;2023-04-24T07:45:47;17.80;;;6.07;;
68284;SDS011;55114;52.052;5.238;2023-04-24T07:48:14;18.48;;;5.90;;
68284;SDS011;55114;52.052;5.238;2023-04-24T07:50:42;17.42;;;6.10;;
68284;SDS011;55114;52.052;5.238;2023-04-24T07:53:09;16.52;;;5.50;;
68284;SDS011;55114;52.052;5.238;2023-04-24T07:55:36;20.88;;;5.50;;
68284;SDS011;55114;52.052;5.238;2023-04-24T07:58:04;16.42;;;4.80;;
68284;SDS011;55114;52.052;5.238;2023-04-24T08:00:31;21.40;;;4.95;;
68284;SDS011;55114;52.052;5.238;2023-04-24T08:02:58;16.90;;;4.55;;
68284;SDS011;55114;52.052;5.238;2023-04-24T08:05:26;18.25;;;4.30;;
68284;SDS011;55114;52.052;5.238;2023-04-24T08:07:55;18.40;;;4.03;;
68284;SDS011;55114;52.052;5.238;2023-04-24T08:10:22;18.05;;;4.03;;
68284;SDS011;55114;52.052;5.238;2023-04-24T08:12:50;17.10;;;3.72;;
68284;SDS011;55114;52.052;5.238;2023-04-24T08:15:17;16.02;;;3.15;;
68284;SDS011;55114;52.052;5.238;2023-04-24T08:17:45;12.13;;;3.00;;
68284;SDS011;55114;52.052;5.238;2023-04-24T08:20:12;11.40;;;2.50;;
68284;SDS011;55114;52.052;5.238;2023-04-24T08:22:40;10.77;;;2.67;;
68284;SDS011;55114;52.052;5.238;2023-04-24T08:25:08;13.35;;;2.15;;
68284;SDS011;55114;52.052;5.238;2023-04-24T08:27:35;12.43;;;2.88;;
68284;SDS011;55114;52.052;5.238;2023-04-24T08:30:03;10.73;;;2.65;;
68284;SDS011;55114;52.052;5.238;2023-04-24T08:32:31;8.73;;;2.33;;
68284;SDS011;55114;52.052;5.238;2023-04-24T08:34:58;11.35;;;1.88;;
68284;SDS011;55114;52.052;5.238;2023-04-24T08:37:26;5.93;;;1.60;;
68284;SDS011;55114;52.052;5.238;2023-04-24T08:39:54;10.25;;;2.05;;
68284;SDS011;55114;52.052;5.238;2023-04-24T08:42:21;10.60;;;2.13;;
68284;SDS011;55114;52.052;5.238;2023-04-24T08:44:49;8.15;;;1.80;;
68284;SDS011;55114;52.052;5.238;2023-04-24T08:47:16;9.40;;;1.90;;
68284;SDS011;55114;52.052;5.238;2023-04-24T08:49:44;13.02;;;1.92;;
68284;SDS011;55114;52.052;5.238;2023-04-24T08:52:12;8.13;;;1.80;;
68284;SDS011;55114;52.052;5.238;2023-04-24T08:54:39;8.65;;;1.70;;
68284;SDS011;55114;52.052;5.238;2023-04-24T08:57:09;10.88;;;2.10;;
68284;SDS011;55114;52.052;5.238;2023-04-24T08:59:37;9.35;;;1.85;;
68284;SDS011;55114;52.052;5.238;2023-04-24T09:02:05;9.52;;;1.80;;
68284;SDS011;55114;52.052;5.238;2023-04-24T09:04:33;9.88;;;1.80;;
68284;SDS011;55114;52.052;5.238;2023-04-24T09:07:01;10.25;;;2.20;;
68284;SDS011;55114;52.052;5.238;2023-04-24T09:09:31;8.55;;;1.77;;
68284;SDS011;55114;52.052;5.238;2023-04-24T09:11:59;9.93;;;1.83;;
68284;SDS011;55114;52.052;5.238;2023-04-24T09:14:27;11.38;;;2.35;;
68284;SDS011;55114;52.052;5.238;2023-04-24T09:16:54;10.52;;;1.70;;
68284;SDS011;55114;52.052;5.238;2023-04-24T09:19:21;9.98;;;1.73;;
68284;SDS011;55114;52.052;5.238;2023-04-24T09:21:49;10.90;;;1.63;;
68284;SDS011;55114;52.052;5.238;2023-04-24T09:24:17;8.38;;;1.90;;
68284;SDS011;55114;52.052;5.238;2023-04-24T09:26:44;9.82;;;1.77;;
68284;SDS011;55114;52.052;5.238;2023-04-24T09:29:15;7.80;;;1.80;;
68284;SDS011;55114;52.052;5.238;2023-04-24T09:31:43;9.13;;;1.83;;
68284;SDS011;55114;52.052;5.238;2023-04-24T09:34:11;7.53;;;1.70;;
68284;SDS011;55114;52.052;5.238;2023-04-24T09:36:39;8.57;;;1.80;;
68284;SDS011;55114;52.052;5.238;2023-04-24T09:39:10;9.43;;;1.92;;
68284;SDS011;55114;52.052;5.238;2023-04-24T09:41:43;7.22;;;1.73;;
68284;SDS011;55114;52.052;5.238;2023-04-24T09:44:16;5.97;;;1.80;;
68284;SDS011;55114;52.052;5.238;2023-04-24T09:46:44;6.75;;;1.67;;
68284;SDS011;55114;52.052;5.238;2023-04-24T09:49:13;6.10;;;1.52;;
68284;SDS011;55114;52.052;5.238;2023-04-24T09:51:41;7.47;;;1.70;;
68284;SDS011;55114;52.052;5.238;2023-04-24T09:54:15;7.15;;;1.70;;
68284;SDS011;55114;52.052;5.238;2023-04-24T09:56:43;7.00;;;1.67;;
68284;SDS011;55114;52.052;5.238;2023-04-24T09:59:12;6.80;;;1.40;;
68284;SDS011;55114;52.052;5.238;2023-04-24T10:01:39;7.47;;;1.38;;
68284;SDS011;55114;52.052;5.238;2023-04-24T10:04:19;5.63;;;1.25;;
68284;SDS011;55114;52.052;5.238;2023-04-24T10:06:47;10.38;;;1.52;;
68284;SDS011;55114;52.052;5.238;2023-04-24T10:09:18;6.40;;;1.37;;
68284;SDS011;55114;52.052;5.238;2023-04-24T10:11:46;7.05;;;1.25;;
68284;SDS011;55114;52.052;5.238;2023-04-24T10:14:14;7.30;;;1.30;;
68284;SDS011;55114;52.052;5.238;2023-04-24T10:16:42;5.85;;;1.23;;
68284;SDS011;55114;52.052;5.238;2023-04-24T10:19:10;4.57;;;1.15;;
68284;SDS011;55114;52.052;5.238;2023-04-24T10:21:42;4.17;;;0.70;;
68284;SDS011;55114;52.052;5.238;2023-04-24T10:24:13;3.58;;;0.70;;
68284;SDS011;55114;52.052;5.238;2023-04-24T10:26:42;3.72;;;0.80;;
68284;SDS011;55114;52.052;5.238;2023-04-24T10:29:10;3.28;;;0.75;;
68284;SDS011;55114;52.052;5.238;2023-04-24T10:31:39;3.25;;;0.70;;
68284;SDS011;55114;52.052;5.238;2023-04-24T10:34:08;5.13;;;0.70;;
68284;SDS011;55114;52.052;5.238;2023-04-24T10:36:36;4.47;;;0.70;;
68284;SDS011;55114;52.052;5.238;2023-04-24T10:39:05;3.15;;;0.73;;
68284;SDS011;55114;52.052;5.238;2023-04-24T10:41:36;5.20;;;0.90;;
68284;SDS011;55114;52.052;5.238;2023-04-24T10:44:13;4.75;;;0.80;;
68284;SDS011;55114;52.052;5.238;2023-04-24T10:46:44;3.97;;;0.70;;
68284;SDS011;55114;52.052;5.238;2023-04-24T10:49:13;3.15;;;0.70;;
68284;SDS011;55114;52.052;5.238;2023-04-24T10:51:48;3.78;;;0.70;;
68284;SDS011;55114;52.052;5.238;2023-04-24T10:54:22;3.03;;;0.70;;
68284;SDS011;55114;52.052;5.238;2023-04-24T10:56:50;6.30;;;0.80;;
68284;SDS011;55114;52.052;5.238;2023-04-24T10:59:24;2.83;;;0.80;;
68284;SDS011;55114;52.052;5.238;2023-04-24T11:01:55;4.00;;;0.82;;
68284;SDS011;55114;52.052;5.238;2023-04-24T11:04:29;5.95;;;0.80;;
68284;SDS011;55114;52.052;5.238;2023-04-24T11:06:57;2.63;;;0.70;;
68284;SDS011;55114;52.052;5.238;2023-04-24T11:09:29;3.97;;;0.70;;
68284;SDS011;55114;52.052;5.238;2023-04-24T11:12:04;3.23;;;1.13;;
68284;SDS011;55114;52.052;5.238;2023-04-24T11:20:07;3.28;;;0.90;;
68284;SDS011;55114;52.052;5.238;2023-04-24T11:22:53;4.85;;;0.90;;
68284;SDS011;55114;52.052;5.238;2023-04-24T11:25:21;2.87;;;0.70;;
68284;SDS011;55114;52.052;5.238;2023-04-24T11:27:49;3.67;;;0.95;;
68284;SDS011;55114;52.052;5.238;2023-04-24T11:30:20;3.42;;;0.90;;
68284;SDS011;55114;52.052;5.238;2023-04-24T11:32:47;4.05;;;0.95;;
68284;SDS011;55114;52.052;5.238;2023-04-24T11:35:16;4.20;;;1.10;;
68284;SDS011;55114;52.052;5.238;2023-04-24T11:37:45;3.60;;;0.77;;
68284;SDS011;55114;52.052;5.238;2023-04-24T11:40:33;4.07;;;0.98;;
68284;SDS011;55114;52.052;5.238;2023-04-24T11:43:00;3.40;;;0.50;;
68284;SDS011;55114;52.052;5.238;2023-04-24T11:45:28;4.72;;;0.80;;
68284;SDS011;55114;52.052;5.238;2023-04-24T11:47:56;1.63;;;0.60;;
68284;SDS011;55114;52.052;5.238;2023-04-24T11:50:26;2.27;;;0.60;;
68284;SDS011;55114;52.052;5.238;2023-04-24T11:52:55;2.78;;;0.57;;
68284;SDS011;55114;52.052;5.238;2023-04-24T11:57:50;3.17;;;0.60;;
68284;SDS011;55114;52.052;5.238;2023-04-24T12:00:18;3.53;;;0.77;;
68284;SDS011;55114;52.052;5.238;2023-04-24T12:02:47;4.73;;;0.70;;
68284;SDS011;55114;52.052;5.238;2023-04-24T12:05:25;1.67;;;0.70;;
68284;SDS011;55114;52.052;5.238;2023-04-24T12:07:53;6.20;;;0.80;;
68284;SDS011;55114;52.052;5.238;2023-04-24T12:10:21;5.38;;;1.60;;
68284;SDS011;55114;52.052;5.238;2023-04-24T12:12:49;11.70;;;4.50;;
68284;SDS011;55114;52.052;5.238;2023-04-24T12:15:18;9.43;;;4.27;;
68284;SDS011;55114;52.052;5.238;2023-04-24T12:17:46;5.28;;;1.10;;
68284;SDS011;55114;52.052;5.238;2023-04-24T12:20:13;5.30;;;1.00;;
68284;SDS011;55114;52.052;5.238;2023-04-24T12:22:52;4.97;;;0.90;;
68284;SDS011;55114;52.052;5.238;2023-04-24T12:25:23;7.18;;;1.00;;
68284;SDS011;55114;52.052;5.238;2023-04-24T12:27:54;3.17;;;0.90;;
68284;SDS011;55114;52.052;5.238;2023-04-24T12:30:26;4.63;;;1.00;;
68284;SDS011;55114;52.052;5.238;2023-04-24T12:32:57;4.50;;;1.00;;
68284;SDS011;55114;52.052;5.238;2023-04-24T12:35:25;8.98;;;1.52;;
68284;SDS011;55114;52.052;5.238;2023-04-24T12:37:53;7.10;;;1.20;;
68284;SDS011;55114;52.052;5.238;2023-04-24T12:40:21;6.53;;;1.20;;
68284;SDS011;55114;52.052;5.238;2023-04-24T12:42:49;4.03;;;1.05;;
68284;SDS011;55114;52.052;5.238;2023-04-24T12:45:17;6.88;;;1.15;;
68284;SDS011;55114;52.052;5.238;2023-04-24T12:47:45;6.40;;;1.60;;
68284;SDS011;55114;52.052;5.238;2023-04-24T12:50:13;7.65;;;1.80;;
68284;SDS011;55114;52.052;5.238;2023-04-24T12:52:41;6.87;;;1.40;;
68284;SDS011;55114;52.052;5.238;2023-04-24T12:55:08;7.30;;;1.38;;
68284;SDS011;55114;52.052;5.238;2023-04-24T12:57:36;7.75;;;1.10;;
68284;SDS011;55114;52.052;5.238;2023-04-24T13:00:04;6.47;;;1.40;;
68284;SDS011;55114;52.052;5.238;2023-04-24T13:02:32;7.13;;;1.30;;
68284;SDS011;55114;52.052;5.238;2023-04-24T13:05:00;8.87;;;1.80;;
68284;SDS011;55114;52.052;5.238;2023-04-24T13:07:28;5.90;;;1.10;;
68284;SDS011;55114;52.052;5.238;2023-04-24T13:09:56;4.25;;;1.00;;
68284;SDS011;55114;52.052;5.238;2023-04-24T13:12:24;5.50;;;1.42;;
68284;SDS011;55114;52.052;5.238;2023-04-24T13:14:52;5.40;;;1.33;;
68284;SDS011;55114;52.052;5.238;2023-04-24T13:17:19;4.70;;;1.30;;
68284;SDS011;55114;52.052;5.238;2023-04-24T13:19:49;7.13;;;1.55;;
68284;SDS011;55114;52.052;5.238;2023-04-24T13:22:17;7.28;;;1.70;;
68284;SDS011;55114;52.052;5.238;2023-04-24T13:24:47;9.23;;;1.70;;
68284;SDS011;55114;52.052;5.238;2023-04-24T13:27:15;7.13;;;1.67;;
68284;SDS011;55114;52.052;5.238;2023-04-24T13:29:42;11.20;;;1.63;;
68284;SDS011;55114;52.052;5.238;2023-04-24T13:32:10;9.57;;;1.50;;
68284;SDS011;55114;52.052;5.238;2023-04-24T13:34:37;7.45;;;1.52;;
68284;SDS011;55114;52.052;5.238;2023-04-24T13:37:05;7.05;;;1.92;;
68284;SDS011;55114;52.052;5.238;2023-04-24T13:39:32;6.43;;;1.90;;
68284;SDS011;55114;52.052;5.238;2023-04-24T13:41:59;5.77;;;1.50;;
68284;SDS011;55114;52.052;5.238;2023-04-24T13:44:30;6.22;;;1.45;;
68284;SDS011;55114;52.052;5.238;2023-04-24T13:46:57;6.63;;;1.50;;
68284;SDS011;55114;52.052;5.238;2023-04-24T13:49:25;5.88;;;1.50;;
68284;SDS011;55114;52.052;5.238;2023-04-24T13:51:53;8.30;;;1.65;;
68284;SDS011;55114;52.052;5.238;2023-04-24T13:54:21;6.40;;;1.57;;
68284;SDS011;55114;52.052;5.238;2023-04-24T13:56:51;7.55;;;1.52;;
68284;SDS011;55114;52.052;5.238;2023-04-24T13:59:21;8.23;;;1.65;;
68284;SDS011;55114;52.052;5.238;2023-04-24T14:01:49;6.50;;;1.70;;
68284;SDS011;55114;52.052;5.238;2023-04-24T14:04:16;5.60;;;1.38;;
68284;SDS011;55114;52.052;5.238;2023-04-24T14:06:44;8.63;;;1.60;;
68284;SDS011;55114;52.052;5.238;2023-04-24T14:09:11;9.10;;;1.73;;
68284;SDS011;55114;52.052;5.238;2023-04-24T14:11:39;5.07;;;1.80;;
68284;SDS011;55114;52.052;5.238;2023-04-24T14:14:07;10.00;;;1.70;;
68284;SDS011;55114;52.052;5.238;2023-04-24T14:16:34;5.45;;;1.50;;
68284;SDS011;55114;52.052;5.238;2023-04-24T14:19:02;10.73;;;2.10;;
68284;SDS011;55114;52.052;5.238;2023-04-24T14:21:29;8.70;;;1.80;;
68284;SDS011;55114;52.052;5.238;2023-04-24T14:24:00;7.72;;;1.80;;
68284;SDS011;55114;52.052;5.238;2023-04-24T14:26:27;8.25;;;2.45;;
68284;SDS011;55114;52.052;5.238;2023-04-24T14:28:55;6.72;;;1.70;;
68284;SDS011;55114;52.052;5.238;2023-04-24T14:31:39;12.80;;;2.70;;
68284;SDS011;55114;52.052;5.238;2023-04-24T14:34:07;8.70;;;2.25;;
68284;SDS011;55114;52.052;5.238;2023-04-24T14:36:34;8.32;;;2.53;;
68284;SDS011;55114;52.052;5.238;2023-04-24T14:39:01;7.47;;;2.10;;
68284;SDS011;55114;52.052;5.238;2023-04-24T14:41:33;8.07;;;2.28;;
68284;SDS011;55114;52.052;5.238;2023-04-24T14:44:02;8.93;;;1.80;;
68284;SDS011;55114;52.052;5.238;2023-04-24T14:46:30;6.18;;;1.90;;
68284;SDS011;55114;52.052;5.238;2023-04-24T14:48:58;7.10;;;1.63;;
68284;SDS011;55114;52.052;5.238;2023-04-24T14:51:26;10.70;;;2.50;;
68284;SDS011;55114;52.052;5.238;2023-04-24T14:53:53;6.75;;;2.40;;
68284;SDS011;55114;52.052;5.238;2023-04-24T14:56:20;9.97;;;2.33;;
68284;SDS011;55114;52.052;5.238;2023-04-24T14:58:48;7.75;;;2.38;;